Terminal Aerodrome Forecast
Issued by NWS

Home | Current Version | Previous Version | Text Only | Print | Product List | Glossary Off
Versions: 1 2 3 4 5 6 7 8 9 10 11 12 13 14 15 16 17 18 19

000
FTUS43 KMPX 260538
TAFRWF
TAF
KRWF 260538Z 2606/2706 28012KT P6SM SCT020 BKN250
     FM260900 33005KT 6SM BR SCT008 OVC020
     FM261400 01006KT P6SM OVC050
     FM270000 34005KT P6SM SCT050=

USA.gov is the U.S. government's official web portal to all federal, state and local government web resources and services.